createdAt,value
2016-01-22T14:14:34.889Z,25.14
2016-01-22T14:15:34.911Z,24.99
2016-01-22T14:16:34.899Z,24.96
2016-01-22T14:17:34.980Z,24.84
2016-01-22T14:18:34.704Z,24.73
2016-01-22T14:19:34.754Z,24.73
2016-01-22T14:20:34.898Z,24.77
2016-01-22T14:21:34.730Z,24.73
2016-01-22T14:22:34.642Z,24.69
2016-01-22T14:23:34.638Z,24.66
2016-01-22T14:24:35.172Z,24.66
2016-01-22T14:25:34.646Z,24.61
2016-01-22T14:26:34.540Z,24.69
2016-01-22T14:27:34.561Z,24.65
2016-01-22T14:28:34.581Z,24.65
2016-01-22T14:29:34.601Z,24.65
2016-01-22T14:30:34.933Z,24.7
2016-01-22T14:31:35.124Z,24.61
2016-01-22T14:32:34.412Z,24.65
2016-01-22T14:33:34.542Z,24.6
2016-01-22T14:34:34.377Z,24.6
2016-01-22T14:35:34.459Z,24.57
2016-01-22T14:36:34.665Z,24.55
2016-01-22T14:37:34.327Z,24.58
2016-01-22T14:38:34.332Z,24.43
2016-01-22T14:39:34.493Z,24.47
2016-01-22T14:40:34.294Z,24.48
2016-01-22T14:41:34.470Z,24.4
2016-01-22T14:42:33.443Z,24.43
2016-01-22T14:43:36.604Z,24.33
2016-01-22T14:44:34.153Z,24.47
2016-01-22T14:45:34.156Z,24.43
2016-01-22T14:46:34.098Z,24.38
2016-01-22T14:47:34.181Z,24.42
2016-01-22T14:48:34.046Z,24.39
2016-01-22T14:49:34.128Z,24.33
2016-01-22T14:50:33.945Z,24.42
2016-01-22T14:51:34.059Z,24.47
2016-01-22T14:52:34.093Z,24.45
2016-01-22T14:53:34.017Z,24.45
2016-01-22T14:54:33.961Z,24.4
2016-01-22T14:55:33.966Z,24.45
2016-01-22T14:56:33.845Z,24.4
2016-01-22T14:57:33.835Z,24.45
2016-01-22T14:58:33.745Z,24.39
2016-01-22T14:59:33.812Z,24.36
2016-01-22T15:00:33.800Z,24.42
2016-01-22T15:01:33.882Z,24.3
2016-01-22T15:02:33.699Z,24.32
2016-01-22T15:03:33.720Z,24.36
2016-01-22T15:04:33.695Z,24.43
2016-01-22T15:05:33.666Z,24.3
2016-01-22T15:06:33.623Z,24.38
2016-01-22T15:07:33.658Z,24.26
2016-01-22T15:08:33.536Z,24.29
2016-01-22T15:09:33.477Z,24.26
2016-01-22T15:10:33.531Z,24.26
2016-01-22T15:11:33.456Z,24.18
2016-01-22T15:12:33.994Z,24.23
2016-01-22T15:13:33.407Z,24.29
2016-01-22T15:14:33.523Z,24.23
2016-01-22T15:15:33.545Z,24.17
2016-01-22T15:16:33.439Z,24.14
2016-01-22T15:17:33.380Z,24.18
2016-01-22T15:18:33.352Z,24.13
2016-01-22T15:19:33.388Z,24.13
2016-01-22T15:20:33.251Z,24.21
2016-01-22T15:21:33.305Z,24.23
2016-01-22T15:22:33.278Z,24.14
2016-01-22T15:23:33.188Z,24.11
2016-01-22T15:24:33.303Z,24.16
2016-01-22T15:25:33.463Z,24.17
2016-01-22T15:26:33.142Z,24.16
2016-01-22T15:27:33.178Z,24.17
2016-01-22T15:28:33.043Z,24.28
2016-01-22T15:29:33.065Z,24.32
2016-01-22T15:30:33.084Z,24.24
2016-01-22T15:31:33.041Z,24.2
2016-01-22T15:32:32.966Z,24.24
2016-01-22T15:33:32.908Z,24.23
2016-01-22T15:34:32.849Z,24.2
2016-01-22T15:35:32.883Z,24.2
2016-01-22T15:36:32.826Z,24.21
2016-01-22T15:37:32.767Z,24.23
2016-01-22T15:38:32.911Z,24.29
2016-01-22T15:39:32.868Z,24.23
2016-01-22T15:40:32.794Z,24.13
2016-01-22T15:41:32.752Z,24.28
2016-01-22T15:42:32.662Z,24.23
2016-01-22T15:43:33.244Z,24.3
2016-01-22T15:44:32.701Z,24.24
2016-01-22T15:45:32.737Z,24.24
2016-01-22T15:46:32.726Z,24.2
2016-01-22T15:47:32.608Z,24.3
2016-01-22T15:48:32.502Z,24.35
2016-01-22T15:49:32.568Z,24.35
2016-01-22T15:50:32.525Z,24.29
2016-01-22T15:51:32.436Z,24.28
2016-01-22T15:52:32.397Z,24.24
2016-01-22T15:53:32.573Z,24.35
2016-01-22T15:54:32.406Z,24.3
2016-01-22T15:55:32.346Z,24.33
2016-01-22T15:56:32.383Z,24.2
2016-01-22T15:57:32.311Z,24.18
2016-01-22T15:58:32.395Z,24.24
2016-01-22T15:59:32.306Z,24.2
2016-01-22T16:00:32.278Z,24.18
2016-01-22T16:01:32.203Z,24.21
2016-01-22T16:02:32.192Z,24.21
2016-01-22T16:03:32.118Z,24.13
2016-01-22T16:04:32.094Z,24.13
2016-01-22T16:05:32.114Z,24.16
2016-01-22T16:06:32.257Z,24.28
2016-01-22T16:07:32.104Z,24.29
2016-01-22T16:08:32.563Z,24.26
2016-01-22T16:09:32.115Z,24.29
2016-01-22T16:10:32.526Z,24.17
2016-01-22T16:11:32.045Z,24.21
2016-01-22T16:12:32.016Z,24.14
2016-01-22T16:13:31.930Z,24.13
2016-01-22T16:14:31.949Z,24.16
2016-01-22T16:15:31.986Z,24.16
2016-01-22T16:16:31.991Z,24.14
2016-01-22T16:17:32.027Z,24.14
2016-01-22T16:18:32.110Z,24.17
2016-01-22T16:19:31.832Z,24.14
2016-01-22T16:20:31.741Z,24.13
2016-01-22T16:21:31.856Z,24.14
2016-01-22T16:22:31.674Z,24.14
2016-01-22T16:23:31.740Z,24.03
2016-01-22T16:24:31.635Z,24.14
2016-01-22T16:25:31.624Z,24.06
2016-01-22T16:26:31.753Z,24.14
2016-01-22T16:27:31.649Z,24.1
2016-01-22T16:28:31.561Z,24.13
2016-01-22T16:29:31.895Z,24.05
2016-01-22T16:30:31.462Z,24.08
2016-01-22T16:31:31.482Z,24.06
2016-01-22T16:32:31.503Z,24.11
2016-01-22T16:33:31.475Z,24.11
2016-01-22T16:34:31.415Z,24.1
2016-01-22T16:35:31.528Z,24.14
2016-01-22T16:36:31.329Z,24.11
2016-01-22T16:37:31.348Z,24.13
2016-01-22T16:38:31.292Z,24.08
2016-01-22T16:39:31.373Z,24.1
2016-01-22T16:40:31.252Z,24.11
2016-01-22T16:41:31.163Z,24.06
2016-01-22T16:42:31.261Z,24.13
2016-01-22T16:43:31.155Z,24.13
2016-01-22T16:44:31.159Z,24.14
2016-01-22T16:45:31.209Z,24.21
2016-01-22T16:46:31.197Z,24.17
2016-01-22T16:47:31.200Z,24.16
2016-01-22T16:48:31.174Z,24.17
2016-01-22T16:49:31.023Z,24.14
2016-01-22T16:50:31.012Z,24.14
2016-01-22T16:51:31.080Z,24.13
2016-01-22T16:52:30.990Z,24.18
2016-01-22T16:53:30.982Z,24.13
